Time;durP1;ratioP1;P1;durP2;ratioP2;P2;SDS_P1;SDS_P2;PMS_P1;PMS_P2;Temp;Humidity;BMP_temperature;BMP_pressure;BME280_temperature;BME280_humidity;BME280_pressure;Samples;Min_cycle;Max_cycle;Signal;HPM_P1;HPM_P2
2021/08/28 00:02:02;;;;;;;7.50;4.40;;;;;;;17.77;83.94;94779.53;5068079;28;20044;-67
2021/08/28 00:04:30;;;;;;;9.07;5.50;;;;;;;17.71;83.95;94791.97;5067753;28;20111;-67
2021/08/28 00:06:57;;;;;;;6.95;4.72;;;;;;;17.75;84.39;94793.00;5066990;28;20437;-67
2021/08/28 00:09:24;;;;;;;12.93;6.45;;;;;;;17.77;84.04;94801.41;5066148;28;20363;-67
2021/08/28 00:11:51;;;;;;;7.20;5.03;;;;;;;17.72;84.63;94798.03;5067572;28;20036;-67
2021/08/28 00:14:18;;;;;;;9.27;6.40;;;;;;;17.74;84.39;94801.97;5067598;28;20093;-67
2021/08/28 00:16:44;;;;;;;8.05;4.88;;;;;;;17.68;84.14;94797.00;5067754;28;20078;-67
2021/08/28 00:19:11;;;;;;;7.63;4.72;;;;;;;17.67;84.29;94795.44;5067296;28;20497;-67
2021/08/28 00:21:38;;;;;;;9.50;6.65;;;;;;;17.63;84.18;94799.69;5067560;28;20098;-67
2021/08/28 00:24:05;;;;;;;9.48;5.25;;;;;;;17.58;84.63;94797.88;5067302;28;20071;-67
2021/08/28 00:26:31;;;;;;;7.45;4.70;;;;;;;17.44;84.53;94799.56;5067091;28;20044;-68
2021/08/28 00:28:58;;;;;;;6.43;3.80;;;;;;;17.34;84.63;94818.84;5067312;28;20110;-66
2021/08/28 00:31:25;;;;;;;6.00;3.40;;;;;;;17.29;84.63;94811.78;5067161;28;20052;-67
2021/08/28 00:33:52;;;;;;;8.23;4.20;;;;;;;17.14;85.48;94814.50;5066893;28;20068;-67
2021/08/28 00:36:19;;;;;;;6.53;4.07;;;;;;;17.07;85.20;94814.00;5067174;28;20040;-67
2021/08/28 00:38:48;;;;;;;6.72;4.53;;;;;;;17.02;85.92;94816.69;5049392;28;20395;-67
2021/08/28 00:41:15;;;;;;;7.32;4.20;;;;;;;17.06;85.72;94812.44;5067142;28;20033;-67
2021/08/28 00:43:42;;;;;;;9.35;4.40;;;;;;;16.94;85.47;94810.94;5066669;28;20156;-67
2021/08/28 00:46:09;;;;;;;7.40;4.75;;;;;;;16.90;86.04;94817.78;5066897;28;20040;-68
2021/08/28 00:48:36;;;;;;;7.45;4.55;;;;;;;16.70;86.75;94815.22;5047785;28;20828;-67
2021/08/28 00:51:03;;;;;;;8.55;4.90;;;;;;;16.77;87.38;94820.97;5048982;28;20510;-67
2021/08/28 00:53:31;;;;;;;7.82;4.68;;;;;;;16.80;87.80;94809.91;5067112;28;20040;-67
2021/08/28 00:55:58;;;;;;;7.10;4.18;;;;;;;16.79;87.53;94819.63;5067118;28;20044;-67
2021/08/28 00:58:25;;;;;;;6.72;3.72;;;;;;;16.68;87.39;94796.28;5047962;28;20102;-67
2021/08/28 01:01:15;;;;;;;7.32;3.53;;;;;;;16.78;87.49;94817.28;5047925;28;20517;-67
2021/08/28 01:03:44;;;;;;;7.30;3.75;;;;;;;16.79;88.16;94810.97;5048572;28;20563;-67
2021/08/28 01:06:54;;;;;;;6.20;3.83;;;;;;;16.84;87.85;94808.34;5066264;28;20123;-66
2021/08/28 01:09:55;;;;;;;7.50;4.55;;;;;;;16.82;88.59;94823.59;5028731;28;20057;-67
2021/08/28 01:12:46;;;;;;;;;;;;;;;16.85;89.30;94828.31;5060315;28;20049;-67
2021/08/28 01:15:21;;;;;;;6.22;4.38;;;;;;;16.84;88.75;94831.25;5065714;28;19920;-66
2021/08/28 01:17:50;;;;;;;6.38;3.80;;;;;;;16.78;88.43;94827.78;5047274;28;20052;-67
2021/08/28 01:21:07;;;;;;;7.30;4.13;;;;;;;16.62;88.55;94825.25;5047790;28;20048;-67
2021/08/28 01:23:54;;;;;;;7.57;5.13;;;;;;;16.50;88.69;94816.84;5003504;28;20146;-67
2021/08/28 01:26:49;;;;;;;6.85;4.38;;;;;;;16.41;89.02;94823.72;5064781;28;20410;-67
2021/08/28 01:29:29;;;;;;;8.75;5.22;;;;;;;16.32;89.95;94820.06;5046589;28;20046;-67
2021/08/28 01:31:58;;;;;;;7.40;5.10;;;;;;;16.23;90.13;94817.97;5047213;28;20092;-67
2021/08/28 01:34:26;;;;;;;11.48;6.07;;;;;;;16.22;90.98;94821.69;5047514;28;20044;-67
2021/08/28 01:36:54;;;;;;;6.40;4.32;;;;;;;16.21;90.80;94822.72;5048324;28;20048;-66
2021/08/28 01:39:42;;;;;;;6.32;3.50;;;;;;;16.09;91.24;94816.97;5049833;28;20060;-67
2021/08/28 01:42:12;;;;;;;7.63;3.90;;;;;;;16.18;91.33;94825.88;5047748;28;20044;-67
2021/08/28 01:44:44;;;;;;;6.10;4.22;;;;;;;16.09;91.70;94818.81;5065973;28;20037;-66
2021/08/28 01:47:14;;;;;;;6.63;4.20;;;;;;;16.06;92.06;94817.47;5048244;28;20048;-67
2021/08/28 01:49:44;;;;;;;7.20;4.35;;;;;;;16.06;92.94;94820.09;5048204;28;20131;-67
2021/08/28 01:52:14;;;;;;;7.88;4.65;;;;;;;16.03;92.17;94820.66;5046795;28;20056;-67
2021/08/28 01:54:44;;;;;;;5.95;4.05;;;;;;;16.01;91.39;94810.41;5065750;28;20115;-67
2021/08/28 01:57:12;;;;;;;7.15;4.45;;;;;;;16.03;91.08;94823.28;5046919;28;20143;-67
2021/08/28 01:59:50;;;;;;;8.07;3.97;;;;;;;16.03;91.11;94818.03;5047279;28;20044;-67
2021/08/28 02:02:23;;;;;;;6.20;3.63;;;;;;;16.04;91.51;94819.59;5056108;28;20457;-67
2021/08/28 02:04:55;;;;;;;6.07;3.67;;;;;;;16.05;91.37;94821.19;5047764;28;20051;-67
2021/08/28 02:07:29;;;;;;;5.47;3.47;;;;;;;16.03;91.48;94823.28;5047208;28;20095;-67
2021/08/28 02:10:03;;;;;;;4.63;3.47;;;;;;;15.96;91.61;94820.13;5047762;28;20040;-66
2021/08/28 02:12:34;;;;;;;8.95;4.78;;;;;;;16.08;91.62;94822.47;5048084;28;20044;-66
2021/08/28 02:15:11;;;;;;;6.20;4.07;;;;;;;15.94;91.76;94806.50;5046827;28;20048;-67
2021/08/28 02:17:49;;;;;;;8.65;4.82;;;;;;;16.00;91.20;94816.69;5047290;28;20095;-67
2021/08/28 02:20:23;;;;;;;4.82;3.67;;;;;;;15.90;91.13;94808.03;5050742;28;20552;-67
2021/08/28 02:23:04;;;;;;;9.63;4.68;;;;;;;15.81;91.56;94802.53;5050868;28;20444;-67
2021/08/28 02:26:00;;;;;;;7.72;3.88;;;;;;;15.76;92.10;94805.97;5068572;28;20058;-67
2021/08/28 02:28:35;;;;;;;8.15;4.68;;;;;;;15.71;91.25;94794.66;5050869;28;20033;-67
2021/08/28 02:31:05;;;;;;;7.97;4.60;;;;;;;15.72;90.99;94807.53;5051688;28;20041;-67
2021/08/28 02:33:42;;;;;;;6.50;4.50;;;;;;;15.70;91.78;94793.88;5051863;28;20051;-67
2021/08/28 02:36:12;;;;;;;5.78;4.25;;;;;;;15.72;91.77;94806.72;5051438;28;20044;-67
2021/08/28 02:38:41;;;;;;;8.30;4.35;;;;;;;15.74;92.15;94808.06;5050245;28;20540;-67
2021/08/28 02:41:08;;;;;;;8.35;5.10;;;;;;;15.81;91.52;94808.59;5050573;28;20518;-68
2021/08/28 02:43:36;;;;;;;7.07;4.15;;;;;;;15.86;91.17;94810.41;5051265;28;20051;-67
2021/08/28 02:46:04;;;;;;;8.40;4.97;;;;;;;15.89;91.17;94811.75;5035252;28;20120;-67
2021/08/28 02:48:37;;;;;;;6.75;4.22;;;;;;;15.85;91.41;94812.25;5051582;28;20542;-66
2021/08/28 02:51:10;;;;;;;5.80;4.13;;;;;;;15.97;90.72;94819.06;5050907;28;20048;-67
2021/08/28 02:53:42;;;;;;;9.32;4.85;;;;;;;15.98;91.57;94820.66;5051098;28;20476;-67
2021/08/28 02:56:11;;;;;;;8.27;4.10;;;;;;;15.86;92.03;94808.59;5051161;28;20471;-67
2021/08/28 02:58:39;;;;;;;7.63;4.65;;;;;;;15.98;91.11;94816.19;5067482;28;20497;-67
2021/08/28 03:01:07;;;;;;;6.75;4.32;;;;;;;16.12;90.14;94818.28;5050237;28;20041;-67
2021/08/28 03:03:37;;;;;;;7.93;3.85;;;;;;;16.10;90.32;94818.53;5050419;28;20056;-67
2021/08/28 03:06:06;;;;;;;6.53;4.00;;;;;;;16.07;90.33;94824.31;5049647;28;20049;-68
2021/08/28 03:08:40;;;;;;;5.78;4.45;;;;;;;16.08;91.07;94831.16;5050824;28;20072;-67
2021/08/28 03:11:08;;;;;;;8.07;4.70;;;;;;;16.05;90.49;94821.94;5068661;28;20032;-67
2021/08/28 03:13:35;;;;;;;5.00;3.47;;;;;;;16.11;90.97;94814.84;5049496;28;20403;-67
2021/08/28 03:16:02;;;;;;;5.43;3.83;;;;;;;16.19;90.65;94813.53;5049457;28;20162;-67
2021/08/28 03:18:36;;;;;;;7.38;4.10;;;;;;;16.20;90.81;94823.75;5050793;28;20424;-67
2021/08/28 03:21:05;;;;;;;6.45;3.97;;;;;;;16.18;90.08;94820.63;5050666;28;20033;-67
2021/08/28 03:23:34;;;;;;;7.88;3.63;;;;;;;16.27;90.07;94823.50;5050480;28;20109;-68
2021/08/28 03:26:01;;;;;;;6.93;4.22;;;;;;;16.27;89.71;94820.88;5050222;28;20064;-67
2021/08/28 03:28:32;;;;;;;6.72;4.30;;;;;;;16.31;90.15;94818.50;5050608;28;20051;-67
2021/08/28 03:31:01;;;;;;;5.80;3.80;;;;;;;16.14;89.56;94809.06;5049598;28;20137;-67
2021/08/28 03:33:31;;;;;;;7.30;4.38;;;;;;;16.19;89.29;94830.09;5068271;28;20044;-67
2021/08/28 03:36:00;;;;;;;8.23;4.60;;;;;;;16.05;89.96;94810.66;5050222;28;20041;-67
2021/08/28 03:38:27;;;;;;;7.25;4.90;;;;;;;16.12;89.59;94832.19;5050636;28;20052;-67
2021/08/28 03:41:00;;;;;;;7.38;4.03;;;;;;;15.95;90.14;94813.31;5050035;28;20541;-68
2021/08/28 03:43:27;;;;;;;7.50;4.28;;;;;;;16.05;90.22;94826.44;5049895;28;20425;-68
2021/08/28 03:45:55;;;;;;;7.45;4.68;;;;;;;16.09;90.94;94826.69;5049697;28;20121;-67
2021/08/28 03:48:23;;;;;;;8.20;4.63;;;;;;;16.20;91.30;94838.75;5050151;28;20502;-67
2021/08/28 03:50:50;;;;;;;5.63;3.72;;;;;;;16.22;92.00;94842.69;5048826;28;20498;-67
2021/08/28 03:53:17;;;;;;;9.55;4.60;;;;;;;16.14;90.66;94845.84;5067716;28;20047;-67
2021/08/28 03:55:44;;;;;;;7.22;4.20;;;;;;;16.14;90.80;94837.97;5067497;28;20047;-67
2021/08/28 03:58:11;;;;;;;6.50;4.25;;;;;;;16.25;92.09;94846.63;5049161;28;20052;-67
2021/08/28 04:00:41;;;;;;;6.32;3.58;;;;;;;16.20;90.56;94839.53;5048208;28;20471;-67
2021/08/28 04:03:08;;;;;;;5.00;3.33;;;;;;;16.22;90.21;94845.31;5067231;28;20044;-67
2021/08/28 04:05:36;;;;;;;6.90;3.65;;;;;;;16.21;90.69;94846.38;5067507;28;20063;-67
2021/08/28 04:08:05;;;;;;;6.85;4.85;;;;;;;16.27;90.68;94846.38;5048840;28;20040;-66
2021/08/28 04:10:36;;;;;;;5.28;3.47;;;;;;;16.26;91.21;94848.22;5050002;28;20048;-67
2021/08/28 04:13:03;;;;;;;8.45;4.25;;;;;;;16.32;91.36;94851.63;5049670;28;20041;-67
2021/08/28 04:15:34;;;;;;;7.43;4.13;;;;;;;16.38;91.54;94845.28;5032719;28;20117;-67
2021/08/28 04:18:27;;;;;;;6.95;3.83;;;;;;;16.41;92.02;94855.28;5063363;28;20061;-67
2021/08/28 04:21:03;;;;;;;6.93;3.95;;;;;;;16.36;91.67;94848.16;5049490;28;20413;-67
2021/08/28 04:23:41;;;;;;;6.22;3.38;;;;;;;16.41;91.24;94850.00;5049784;28;20047;-67
2021/08/28 04:26:30;;;;;;;9.20;5.55;;;;;;;16.45;91.11;94851.03;5065929;28;20079;-67
2021/08/28 04:28:57;;;;;;;8.88;4.60;;;;;;;16.46;89.93;94855.25;5049766;28;20044;-67
2021/08/28 04:31:26;;;;;;;6.15;3.75;;;;;;;16.45;89.73;94851.03;5048596;28;20572;-67
2021/08/28 04:33:54;;;;;;;11.07;4.68;;;;;;;16.48;90.08;94855.78;5047924;28;20143;-69
2021/08/28 04:36:21;;;;;;;6.55;4.55;;;;;;;16.49;90.45;94862.59;5048895;28;20079;-67
2021/08/28 04:38:48;;;;;;;6.90;3.97;;;;;;;16.47;89.79;94862.06;5049389;28;20494;-67
2021/08/28 04:41:15;;;;;;;6.55;4.28;;;;;;;16.38;89.64;94850.53;5048276;28;20127;-67
2021/08/28 04:43:42;;;;;;;6.45;3.92;;;;;;;16.44;89.47;94860.00;5066878;28;20112;-67
2021/08/28 04:46:17;;;;;;;7.90;4.35;;;;;;;16.45;88.77;94858.94;5049055;28;20059;-67
2021/08/28 04:48:47;;;;;;;7.50;4.05;;;;;;;16.39;89.23;94857.38;5048291;28;20078;-67
2021/08/28 04:51:39;;;;;;;8.93;4.22;;;;;;;16.40;88.96;94853.69;5048753;28;20617;-68
2021/08/28 04:54:09;;;;;;;7.13;4.22;;;;;;;16.45;89.01;94866.81;5049581;28;20050;-67
2021/08/28 04:56:36;;;;;;;9.57;4.47;;;;;;;16.48;88.96;94868.91;5067330;28;20106;-67
2021/08/28 04:59:06;;;;;;;6.18;3.08;;;;;;;16.43;90.95;94863.66;5049690;28;20537;-67
2021/08/28 05:01:45;;;;;;;9.00;5.18;;;;;;;16.45;90.37;94872.06;5064977;28;20051;-67
2021/08/28 05:04:13;;;;;;;7.63;3.60;;;;;;;16.50;89.56;94858.16;5068278;28;20052;-67
2021/08/28 05:06:39;;;;;;;6.93;3.90;;;;;;;16.73;89.40;94867.28;5049203;28;20567;-68
2021/08/28 05:09:09;;;;;;;6.22;3.95;;;;;;;16.78;89.24;94854.09;5049555;28;20044;-67
2021/08/28 05:11:37;;;;;;;6.05;4.18;;;;;;;16.85;88.59;94862.50;5049543;28;20120;-68
2021/08/28 05:14:04;;;;;;;7.38;4.55;;;;;;;16.83;88.41;94862.00;5048700;28;20181;-67
2021/08/28 05:16:31;;;;;;;6.55;3.72;;;;;;;16.53;91.28;94847.06;5048000;28;20052;-68
2021/08/28 05:19:01;;;;;;;8.30;4.60;;;;;;;16.39;92.35;94867.91;5047800;28;20040;-68
2021/08/28 05:21:28;;;;;;;7.22;4.47;;;;;;;16.52;92.28;94856.03;5067728;28;20044;-68
2021/08/28 05:24:20;;;;;;;7.78;4.97;;;;;;;16.53;92.17;94857.59;5047350;28;20049;-67
2021/08/28 05:26:50;;;;;;;16.48;5.97;;;;;;;16.33;94.31;94847.91;5047646;28;20052;-68
2021/08/28 05:29:17;;;;;;;8.13;4.47;;;;;;;16.35;94.18;94851.06;5047962;28;20106;-68
2021/08/28 05:31:44;;;;;;;6.55;3.85;;;;;;;16.38;93.32;94850.53;5048673;28;20036;-68
2021/08/28 05:34:14;;;;;;;5.93;3.75;;;;;;;16.39;92.83;94846.88;5047739;28;20089;-69
2021/08/28 05:37:18;;;;;;;5.70;3.50;;;;;;;16.44;94.33;94849.50;5016748;28;20049;-68
2021/08/28 05:40:01;;;;;;;6.55;4.15;;;;;;;16.63;92.19;94852.31;5028240;28;20033;-68
2021/08/28 05:42:29;;;;;;;7.10;4.90;;;;;;;16.69;91.32;94845.19;5048371;28;20036;-68
2021/08/28 05:44:56;;;;;;;5.32;4.05;;;;;;;16.79;90.91;94845.16;5049087;28;20425;-66
2021/08/28 05:47:24;;;;;;;6.30;3.63;;;;;;;16.62;91.45;94835.75;5049853;28;20066;-67
2021/08/28 05:49:50;;;;;;;6.75;4.78;;;;;;;16.63;90.80;94847.81;5067536;28;20045;-67
2021/08/28 05:52:19;;;;;;;9.30;5.30;;;;;;;16.71;91.79;94832.56;5048984;28;21672;-67
2021/08/28 05:54:46;;;;;;;10.63;5.38;;;;;;;16.83;91.29;94846.22;5047623;28;20044;-67
2021/08/28 05:57:13;;;;;;;9.23;4.53;;;;;;;16.82;91.48;94834.09;5048185;28;20064;-66
2021/08/28 05:59:39;;;;;;;6.05;4.20;;;;;;;16.91;91.51;94848.28;5067194;28;20115;-68
2021/08/28 06:02:11;;;;;;;10.32;4.97;;;;;;;16.90;89.81;94851.97;5049536;28;20036;-68
2021/08/28 06:04:40;;;;;;;6.28;4.18;;;;;;;16.93;89.55;94851.44;5048987;28;20123;-67
2021/08/28 06:07:07;;;;;;;7.35;4.60;;;;;;;16.91;90.72;94837.78;5065892;28;20049;-67
2021/08/28 06:09:49;;;;;;;7.10;4.50;;;;;;;17.08;89.10;94836.63;5065255;28;20064;-66
2021/08/28 06:12:36;;;;;;;6.35;4.05;;;;;;;17.24;88.10;94840.75;5068334;28;20533;-66
2021/08/28 06:15:22;;;;;;;8.10;4.38;;;;;;;17.27;88.06;94834.97;5066135;28;20059;-66
2021/08/28 06:18:09;;;;;;;5.63;3.40;;;;;;;17.32;87.43;94842.03;5065574;28;20052;-67
2021/08/28 06:20:37;;;;;;;8.27;5.47;;;;;;;17.44;87.19;94839.06;5048728;28;20102;-67
2021/08/28 06:23:06;;;;;;;7.05;4.28;;;;;;;17.54;85.77;94839.78;5049804;28;20041;-66
2021/08/28 06:25:53;;;;;;;8.68;4.78;;;;;;;17.79;84.93;94835.38;5067956;28;20052;-66
2021/08/28 06:28:20;;;;;;;8.77;5.05;;;;;;;18.00;84.41;94841.28;5049128;28;20036;-66
2021/08/28 06:30:48;;;;;;;8.85;4.75;;;;;;;18.13;82.95;94832.75;5049576;28;20122;-67
2021/08/28 06:33:14;;;;;;;6.07;4.28;;;;;;;18.30;82.93;94826.25;5066172;28;20064;-67
2021/08/28 06:35:41;;;;;;;6.63;4.25;;;;;;;18.34;81.76;94824.63;5047482;28;20136;-67
2021/08/28 06:38:28;;;;;;;8.13;4.28;;;;;;;18.39;79.72;94821.16;5047460;28;20429;-67
2021/08/28 06:41:13;;;;;;;9.10;6.00;;;;;;;18.22;81.35;94803.13;5067141;28;20058;-67
2021/08/28 06:44:09;;;;;;;9.00;4.32;;;;;;;18.29;80.92;94800.94;4976802;28;20382;-68
2021/08/28 06:46:54;;;;;;;9.00;4.85;;;;;;;18.38;80.95;94809.81;5065547;28;20418;-67
2021/08/28 06:49:40;;;;;;;7.22;4.85;;;;;;;18.51;79.92;94798.59;5066416;28;20178;-67
2021/08/28 06:52:25;;;;;;;7.88;4.75;;;;;;;18.68;79.34;94813.19;5064558;28;20159;-67
2021/08/28 06:55:10;;;;;;;6.15;3.85;;;;;;;18.81;79.54;94812.50;5067012;28;20178;-67
2021/08/28 06:57:56;;;;;;;7.50;3.42;;;;;;;19.08;79.58;94811.91;5065063;28;20043;-67
2021/08/28 07:00:31;;;;;;;7.00;4.63;;;;;;;19.33;79.18;94807.34;5046104;28;20514;-67
2021/08/28 07:03:16;;;;;;;5.65;4.47;;;;;;;19.41;77.39;94816.47;5064224;28;20058;-67
2021/08/28 07:05:44;;;;;;;7.97;4.93;;;;;;;19.20;78.45;94819.41;5048243;28;20072;-67
2021/08/28 07:08:24;;;;;;;8.73;4.50;;;;;;;19.20;77.04;94808.84;5051425;28;20040;-67
2021/08/28 07:10:51;;;;;;;7.20;4.50;;;;;;;19.38;77.24;94819.69;5051498;28;20098;-68
2021/08/28 07:13:18;;;;;;;8.23;6.05;;;;;;;19.48;76.72;94822.16;5069395;28;20040;-68
2021/08/28 07:15:44;;;;;;;6.68;4.35;;;;;;;19.59;75.57;94810.41;5051039;28;20045;-68
2021/08/28 07:18:14;;;;;;;8.40;4.32;;;;;;;19.70;75.17;94810.22;5068035;28;20488;-68
2021/08/28 07:20:42;;;;;;;7.18;4.65;;;;;;;19.79;74.65;94808.50;5051007;28;20509;-68
2021/08/28 07:23:11;;;;;;;7.30;4.97;;;;;;;19.80;74.66;94815.38;5050857;28;20044;-68
2021/08/28 07:25:55;;;;;;;7.15;4.30;;;;;;;19.76;75.51;94803.81;5044484;28;20068;-67
2021/08/28 07:28:22;;;;;;;7.80;5.10;;;;;;;20.10;72.39;94808.03;5049185;28;20041;-67
2021/08/28 07:31:08;;;;;;;8.50;4.93;;;;;;;20.36;71.98;94797.75;5066809;28;20043;-67
2021/08/28 07:33:41;;;;;;;8.18;4.60;;;;;;;20.35;72.95;94794.34;5050003;28;20040;-68
2021/08/28 07:36:08;;;;;;;8.15;4.50;;;;;;;20.64;69.97;94803.88;5049408;28;20429;-68
2021/08/28 07:38:39;;;;;;;6.72;4.38;;;;;;;20.90;68.51;94803.34;5049716;28;20055;-68
2021/08/28 07:41:06;;;;;;;7.78;4.55;;;;;;;21.00;68.38;94795.19;5065359;28;20033;-68
2021/08/28 07:43:37;;;;;;;8.32;3.40;;;;;;;21.22;67.53;94796.31;5048780;28;20063;-68
2021/08/28 07:46:04;;;;;;;6.57;5.03;;;;;;;21.28;67.28;94793.25;5050101;28;20135;-68
2021/08/28 07:48:35;;;;;;;7.07;4.38;;;;;;;21.16;69.40;94791.13;5049555;28;20048;-69
2021/08/28 07:51:03;;;;;;;6.90;4.70;;;;;;;21.08;68.06;94783.88;5048662;28;20048;-68
2021/08/28 07:53:31;;;;;;;6.70;4.55;;;;;;;21.13;68.04;94789.06;5050556;28;20044;-68
2021/08/28 07:56:00;;;;;;;7.85;4.18;;;;;;;20.98;69.10;94784.91;5050532;28;20044;-68
2021/08/28 07:58:27;;;;;;;7.72;4.72;;;;;;;21.06;69.37;94786.06;5050501;28;20441;-68
2021/08/28 08:00:53;;;;;;;7.75;4.35;;;;;;;21.31;71.10;94782.06;5049503;28;20573;-69
2021/08/28 08:03:21;;;;;;;8.15;4.65;;;;;;;21.28;67.77;94760.69;5047722;28;20033;-69
2021/08/28 08:06:19;;;;;;;6.88;3.45;;;;;;;21.39;68.65;94775.25;5065936;28;20048;-69
2021/08/28 08:09:05;;;;;;;8.48;5.30;;;;;;;21.57;67.23;94771.69;5067127;28;20052;-68
2021/08/28 08:12:04;;;;;;;7.68;4.72;;;;;;;21.78;66.36;94773.84;5013588;28;20383;-68
2021/08/28 08:15:00;;;;;;;6.63;3.75;;;;;;;22.02;65.76;94772.72;4978046;28;20051;-68
2021/08/28 08:17:56;;;;;;;6.50;3.90;;;;;;;22.16;64.08;94768.09;5030166;28;20515;-68
2021/08/28 08:20:55;;;;;;;6.63;4.47;;;;;;;22.42;63.49;94759.47;5034277;28;20040;-69
2021/08/28 08:23:41;;;;;;;6.07;4.03;;;;;;;22.55;62.93;94763.91;5067402;28;20047;-69
2021/08/28 08:26:26;;;;;;;5.18;3.80;;;;;;;22.73;61.48;94754.09;5068693;28;20113;-69
2021/08/28 08:29:22;;;;;;;6.57;4.47;;;;;;;23.04;62.06;94764.63;4986938;28;20568;-69
2021/08/28 08:31:56;;;;;;;6.57;4.28;;;;;;;22.95;62.68;94765.69;5049921;28;20042;-69
2021/08/28 08:34:33;;;;;;;7.05;4.22;;;;;;;23.06;62.19;94762.44;5050228;28;20040;-69
2021/08/28 08:37:00;;;;;;;6.63;4.20;;;;;;;23.29;62.68;94754.34;5050061;28;20037;-69
2021/08/28 08:39:27;;;;;;;5.50;3.45;;;;;;;23.28;61.03;94752.75;5048251;28;20041;-69
2021/08/28 08:41:54;;;;;;;7.50;4.68;;;;;;;23.42;61.25;94758.69;5049857;28;20147;-67
2021/08/28 08:44:23;;;;;;;6.55;4.57;;;;;;;23.55;60.94;94742.91;5049705;28;20045;-67
2021/08/28 08:46:52;;;;;;;7.32;4.20;;;;;;;23.78;62.14;94744.25;5050198;28;20059;-67
2021/08/28 08:49:20;;;;;;;7.00;4.47;;;;;;;23.62;60.90;94741.34;5049798;28;20075;-67
2021/08/28 08:51:48;;;;;;;7.70;4.05;;;;;;;23.82;62.17;94729.28;5048828;28;20044;-68
2021/08/28 08:54:15;;;;;;;8.52;5.70;;;;;;;24.10;61.75;94726.19;5048207;28;20040;-68
2021/08/28 08:56:42;;;;;;;6.22;3.85;;;;;;;24.17;61.47;94707.88;5049795;28;20075;-68
2021/08/28 08:59:10;;;;;;;7.38;4.57;;;;;;;24.66;60.55;94714.69;5050016;28;20078;-68
2021/08/28 09:01:39;;;;;;;7.85;5.47;;;;;;;24.94;60.04;94702.41;5048979;28;20501;-68
2021/08/28 09:04:25;;;;;;;7.75;4.88;;;;;;;25.07;59.25;94695.25;5068329;28;20063;-69
2021/08/28 09:06:52;;;;;;;8.10;5.30;;;;;;;25.19;58.76;94702.50;5050079;28;20058;-68
2021/08/28 09:09:19;;;;;;;8.00;4.38;;;;;;;25.29;59.00;94702.16;5066597;28;20115;-68
2021/08/28 09:12:00;;;;;;;6.00;4.43;;;;;;;25.65;55.35;94698.03;5068162;28;20094;-68
2021/08/28 09:14:28;;;;;;;5.78;4.10;;;;;;;25.97;57.18;94698.34;5067033;28;20037;-68
2021/08/28 09:16:55;;;;;;;5.53;3.58;;;;;;;26.25;55.32;94695.03;5067562;28;20128;-69
2021/08/28 09:19:37;;;;;;;6.50;4.45;;;;;;;26.59;52.51;94690.31;5065900;28;20123;-68
2021/08/28 09:22:09;;;;;;;8.18;4.20;;;;;;;26.63;55.63;94681.34;5067244;28;20040;-68
2021/08/28 09:24:47;;;;;;;6.57;4.22;;;;;;;26.56;58.09;94680.31;5066752;28;20052;-69
2021/08/28 09:27:41;;;;;;;7.57;4.70;;;;;;;26.41;56.74;94674.53;5067663;28;20039;-68
2021/08/28 09:30:28;;;;;;;6.65;3.78;;;;;;;26.30;56.64;94676.13;5065946;28;20049;-68
2021/08/28 09:33:00;;;;;;;6.85;4.70;;;;;;;26.63;53.38;94669.88;5065709;28;20059;-68
2021/08/28 09:35:30;;;;;;;7.00;5.28;;;;;;;26.43;54.20;94661.63;5066364;28;20056;-68
2021/08/28 09:37:58;;;;;;;7.18;3.92;;;;;;;26.73;53.17;94668.63;5067174;28;20395;-68
2021/08/28 09:40:28;;;;;;;7.45;4.78;;;;;;;26.91;53.59;94669.16;5065684;28;20061;-68
2021/08/28 09:43:01;;;;;;;6.68;3.97;;;;;;;26.86;56.09;94656.78;5066479;28;20032;-69
2021/08/28 09:45:29;;;;;;;6.47;3.38;;;;;;;27.14;53.74;94656.81;5067225;28;20412;-68
2021/08/28 09:47:57;;;;;;;5.90;3.97;;;;;;;27.68;54.37;94646.75;5066728;28;20059;-68
2021/08/28 09:50:32;;;;;;;6.63;4.97;;;;;;;26.91;53.41;94637.84;5066860;28;20520;-68
2021/08/28 09:53:01;;;;;;;7.68;4.55;;;;;;;27.49;54.87;94629.47;5065893;28;20498;-68
2021/08/28 09:55:31;;;;;;;7.60;4.32;;;;;;;27.64;54.75;94631.41;5067049;28;20102;-68
2021/08/28 09:57:57;;;;;;;6.05;4.55;;;;;;;27.95;55.59;94623.75;5049150;28;20055;-68
2021/08/28 10:00:24;;;;;;;8.35;5.10;;;;;;;28.18;52.20;94631.91;5066907;28;20045;-68
2021/08/28 10:02:58;;;;;;;8.63;5.03;;;;;;;28.44;49.97;94622.53;5065630;28;20044;-68
2021/08/28 10:05:27;;;;;;;7.45;5.35;;;;;;;28.41;52.63;94624.78;5066576;28;20049;-68
2021/08/28 10:07:58;;;;;;;6.88;4.32;;;;;;;28.84;50.98;94618.78;5067051;28;20056;-69
2021/08/28 10:10:26;;;;;;;6.53;5.15;;;;;;;29.00;52.05;94622.16;5065891;28;20046;-69
2021/08/28 10:12:54;;;;;;;6.53;4.72;;;;;;;29.33;50.57;94618.97;5066861;28;20048;-68
2021/08/28 10:15:22;;;;;;;8.55;5.50;;;;;;;28.91;50.13;94618.91;5066977;28;20178;-68
2021/08/28 10:17:49;;;;;;;6.15;4.72;;;;;;;28.69;52.39;94615.81;5067085;28;20052;-69
2021/08/28 10:20:18;;;;;;;5.93;4.55;;;;;;;29.16;51.78;94608.69;5066731;28;20413;-68
2021/08/28 10:22:49;;;;;;;4.95;3.97;;;;;;;29.38;50.35;94609.84;5066435;28;20039;-69
2021/08/28 10:25:20;;;;;;;23.70;6.65;;;;;;;29.32;49.01;94616.66;5066796;28;20480;-68
2021/08/28 10:27:48;;;;;;;5.50;4.15;;;;;;;29.55;47.93;94612.06;5066786;28;20457;-68
2021/08/28 10:30:17;;;;;;;7.05;4.63;;;;;;;30.15;49.85;94602.66;5048588;28;20067;-68
2021/08/28 10:32:45;;;;;;;6.72;4.65;;;;;;;30.26;47.93;94606.28;5065582;28;20166;-68
2021/08/28 10:35:13;;;;;;;7.38;5.32;;;;;;;30.60;48.44;94606.38;5066688;28;20102;-68
2021/08/28 10:37:40;;;;;;;8.15;6.10;;;;;;;30.34;49.39;94592.97;5066888;28;20454;-68
2021/08/28 10:40:12;;;;;;;6.78;4.95;;;;;;;30.86;49.31;94594.81;5068050;28;20538;-69
2021/08/28 10:42:41;;;;;;;6.70;5.13;;;;;;;31.09;47.33;94593.13;5069561;28;20049;-69
2021/08/28 10:45:10;;;;;;;6.15;5.00;;;;;;;30.96;46.76;94585.31;5070232;28;20052;-68
2021/08/28 10:47:46;;;;;;;6.05;4.78;;;;;;;31.40;47.74;94591.91;5052385;28;20070;-69
2021/08/28 10:50:14;;;;;;;6.70;5.07;;;;;;;31.19;46.76;94585.19;5052241;28;20592;-68
2021/08/28 10:52:47;;;;;;;7.63;5.90;;;;;;;31.94;46.09;94584.28;5052226;28;20079;-69
2021/08/28 10:55:15;;;;;;;8.75;5.95;;;;;;;31.98;44.50;94577.81;5069717;28;20040;-68
2021/08/28 10:57:43;;;;;;;8.73;5.60;;;;;;;31.83;45.25;94571.53;5069262;28;20048;-68
2021/08/28 11:00:11;;;;;;;8.43;6.65;;;;;;;31.90;44.47;94565.41;5070055;28;20040;-68
2021/08/28 11:02:57;;;;;;;11.10;6.38;;;;;;;31.82;42.11;94564.59;5068004;28;20086;-68
2021/08/28 11:05:32;;;;;;;8.02;6.05;;;;;;;31.89;44.59;94573.88;5069473;28;20044;-69
2021/08/28 11:08:18;;;;;;;;;;;;;;;31.18;44.07;94574.78;5069562;28;20037;-69
2021/08/28 11:11:23;;;;;;;8.40;5.35;;;;;;;31.69;41.82;94570.66;5068543;28;19921;-68
2021/08/28 11:13:55;;;;;;;11.40;7.97;;;;;;;31.88;43.68;94577.72;5069362;28;20153;-68
2021/08/28 11:16:43;;;;;;;6.68;5.35;;;;;;;32.49;41.71;94568.09;5068478;28;21189;-68
2021/08/28 11:19:32;;;;;;;6.22;5.07;;;;;;;33.13;39.11;94567.59;5068434;28;20064;-69
2021/08/28 11:21:59;;;;;;;10.23;6.60;;;;;;;32.98;42.13;94565.22;5050891;28;20040;-67
2021/08/28 11:24:28;;;;;;;8.65;6.95;;;;;;;32.49;41.20;94562.72;5069214;28;20044;-68
2021/08/28 11:26:56;;;;;;;6.07;5.45;;;;;;;32.54;41.08;94559.66;5068273;28;20044;-68
2021/08/28 11:29:41;;;;;;;7.00;5.43;;;;;;;32.65;41.71;94554.34;5068717;28;20067;-68
2021/08/28 11:32:22;;;;;;;9.35;5.80;;;;;;;32.32;40.92;94550.72;5068565;28;20041;-68
2021/08/28 11:34:53;;;;;;;6.70;5.30;;;;;;;32.85;39.55;94552.09;5067815;28;20418;-67
2021/08/28 11:37:26;;;;;;;6.93;4.60;;;;;;;32.42;39.26;94541.13;5068519;28;20036;-67
2021/08/28 11:39:55;;;;;;;7.85;5.82;;;;;;;32.02;43.41;94532.03;5067780;28;20040;-68
2021/08/28 11:42:22;;;;;;;6.90;4.90;;;;;;;31.90;42.48;94526.97;5068844;28;20033;-68
2021/08/28 11:44:50;;;;;;;8.15;6.07;;;;;;;31.60;43.63;94533.28;5067256;28;20052;-68
2021/08/28 11:47:18;;;;;;;7.55;5.43;;;;;;;31.43;42.36;94526.59;5068113;28;20040;-67
2021/08/28 11:49:45;;;;;;;6.85;5.70;;;;;;;31.27;43.63;94529.53;5068416;28;20120;-67
2021/08/28 11:52:12;;;;;;;9.57;6.57;;;;;;;31.49;44.19;94518.97;5067968;28;20036;-68
2021/08/28 11:54:39;;;;;;;7.13;5.63;;;;;;;32.24;43.50;94524.09;5068022;28;20040;-68
2021/08/28 11:57:06;;;;;;;10.80;5.80;;;;;;;32.60;42.67;94513.50;5066314;28;20036;-67
2021/08/28 11:59:43;;;;;;;7.22;5.35;;;;;;;32.56;40.79;94503.44;5066927;28;20045;-67
2021/08/28 12:02:11;;;;;;;8.07;6.05;;;;;;;31.75;43.46;94505.31;5064434;28;20057;-67